Spanish Lake, Louisiana
Current Conditions -  °F | °C
As of 4:15 PM on Tuesday 25 Nov 2014 (Local Time) from KIER Reporting Station
Clear Clear  
Wind Chill: 59°   Ceiling: Unl
Heat Index: 59°   Visibility: 10mi
Dew Point: 31°   Wind: 3mph
Humidity: 34%   Direction: 310°NW
Pressure: 30.2"   Gusts: NA
Location:  31.8112°N, 93.3051°W
Report Text: KIER 252215Z AUTO 31003KT 10SM CLR 15/M01 A3020 RMK AO2 T01511007
Loading
Personal Weather Stations






























Interactive Weather Map New forecast layout! Learn more

10-Day Weather Forecast

Advertisements
Track Severe Weather on mobile